This is the latest recevied weather packets stored in our database for station/object CE1RLP-31. If no packets are shown the sender has not sent any weather packets the latest 10 day(s).
| Time | Temp. | Humidity | Pressure | Rain* | Wind** | Luminosity | Snow |
|---|---|---|---|---|---|---|---|
| 1777745257 | 21.11° C | 8% | 1100.8 hPa | - | - | - | - |
| 1777744357 | 17.22° C | 8% | 1096.7 hPa | - | - | - | - |
| 1777743457 | 21.11° C | 8% | 1100.9 hPa | - | - | - | - |
| 1777742557 | 21.67° C | 8% | 1101 hPa | - | - | - | - |
| 1777741657 | 21.67° C | 8% | 1101.2 hPa | - | - | - | - |
| 1777740757 | 21.11° C | 8% | 1101.4 hPa | - | - | - | - |
| 1777739857 | 21.11° C | 8% | 1101.4 hPa | - | - | - | - |
| 1777738957 | 21.11° C | 8% | 1101.5 hPa | - | - | - | - |
| 1777738057 | 20.56° C | 8% | 1101.6 hPa | - | - | - | - |
| 1777737158 | 20.56° C | 8% | 1101.7 hPa | - | - | - | - |
| 1777736258 | 20° C | 9% | 1101.8 hPa | - | - | - | - |
| 1777735358 | 19.44° C | 9% | 1102.1 hPa | - | - | - | - |
| 1777734458 | 19.44° C | 9% | 1102 hPa | - | - | - | - |
| 1777733558 | 18.89° C | 9% | 1102 hPa | - | - | - | - |
| 1777732658 | 17.78° C | 10% | 1101.9 hPa | - | - | - | - |
| 1777731758 | 17.22° C | 10% | 1101.9 hPa | - | - | - | - |
| 1777730857 | 16.67° C | 10% | 1101.9 hPa | - | - | - | - |
| 1777729957 | 16.11° C | 10% | 1101.7 hPa | - | - | - | - |
| 1777729057 | 15° C | 10% | 1101.7 hPa | - | - | - | - |
| 1777728157 | 14.44° C | 10% | 1101.6 hPa | - | - | - | - |
| 1777727257 | 13.89° C | 10% | 1101.5 hPa | - | - | - | - |
| 1777726357 | 13.33° C | 10% | 1101.2 hPa | - | - | - | - |
| 1777725457 | 12.78° C | 10% | 1101.1 hPa | - | - | - | - |
| 1777724557 | 11.67° C | 10% | 1100.9 hPa | - | - | - | - |
| 1777723657 | 11.11° C | 10% | 1100.9 hPa | - | - | - | - |
* Rain since midnight (hover to see other rain measurements)
** Current wind speed in m/s (hover to see current wind gust speed)